| Back to River Map | <<< Previous Forecast Point | | | Next Forecast Point >>> | Printer Version | Graph Version |  |
|
FEATHER RIVER - BOYDS LANDING (FBLC1)
| Latitude: 39.05º N | Longitude: 121.61º W | Elevation: 50 Feet | | Forecast Type: Official Location |
| Location: Sutter County in California | Bulletin Group: Lower Sacramento | River Group: Feather Yuba |
| Issuance Time: | May 03 2026 at 8:11 AM PDT | Next Issuance: | May 04 2026 at 9:00 AM PDT
| |
| Action/Monitor: 57.0 Feet | Minor Flood: 65.0 Feet | Moderate Flood: 69.0 Feet | Major Flood: 70.0 Feet |
# Tabular Observed and Forecast Hydrograph Information
#
# Location: Feather River - Boyds Landing (FBLC1)
#
# File Generation Time: 05/03/2026 at 08:11 AM PDT
# Data Interval: 1 Hour
#
# Most Recent Date & Time of Maximum Observed: 04/28/2026 at 08:00 AM PDT
# Maximum Observed Stage: 29.81 Feet
# Maximum Observed Flow: 5456 cfs
#
# Earliest Date & Time of Maximum Forecast: 05/03/2026 at 09:00 AM PDT
# Maximum Forecast Stage: 28.89 Feet
# Maximum Forecast Flow: 4071 cfs
#
# OBSERVED
#
# Date & Time (Local) Stage (Feet) Flow (cfs) Trend Observed Status
# ---------------------------------------------------------------------------------
04/28/2026 08 AM PDT 29.81 5456 Normal
04/28/2026 09 AM PDT 29.77 5394 - Normal
04/28/2026 10 AM PDT 29.72 5317 - Normal
04/28/2026 11 AM PDT 29.69 5270 - Normal
04/28/2026 12 PM PDT 29.65 5209 - Normal
04/28/2026 01 PM PDT 29.63 5178 - Normal
04/28/2026 02 PM PDT 29.61 5147 - Normal
04/28/2026 03 PM PDT 29.58 5101 - Normal
04/28/2026 04 PM PDT 29.56 5071 - Normal
04/28/2026 05 PM PDT 29.54 5040 - Normal
04/28/2026 06 PM PDT 29.54 5040 0 Normal
04/28/2026 07 PM PDT 29.53 5025 - Normal
04/28/2026 08 PM PDT 29.52 5010 - Normal
04/28/2026 09 PM PDT 29.53 5025 + Normal
04/28/2026 10 PM PDT 29.54 5040 + Normal
04/28/2026 11 PM PDT 29.55 5055 + Normal
04/29/2026 12 AM PDT 29.57 5086 + Normal
04/29/2026 01 AM PDT 29.57 5086 0 Normal
04/29/2026 02 AM PDT 29.59 5117 + Normal
04/29/2026 03 AM PDT 29.59 5117 0 Normal
04/29/2026 04 AM PDT 29.59 5117 0 Normal
04/29/2026 05 AM PDT 29.60 5132 + Normal
04/29/2026 06 AM PDT 29.59 5117 - Normal
04/29/2026 07 AM PDT 29.60 5132 + Normal
04/29/2026 08 AM PDT 29.61 5147 + Normal
04/29/2026 09 AM PDT 29.61 5147 0 Normal
04/29/2026 10 AM PDT 29.61 5147 0 Normal
04/29/2026 11 AM PDT 29.60 5132 - Normal
04/29/2026 12 PM PDT 29.60 5132 0 Normal
04/29/2026 01 PM PDT 29.60 5132 0 Normal
04/29/2026 02 PM PDT 29.59 5117 - Normal
04/29/2026 03 PM PDT 29.58 5101 - Normal
04/29/2026 04 PM PDT 29.57 5086 - Normal
04/29/2026 05 PM PDT 29.56 5071 - Normal
04/29/2026 06 PM PDT 29.56 5071 0 Normal
04/29/2026 07 PM PDT 29.55 5055 - Normal
04/29/2026 08 PM PDT 29.54 5040 - Normal
04/29/2026 09 PM PDT 29.54 5040 0 Normal
04/29/2026 10 PM PDT 29.53 5025 - Normal
04/29/2026 11 PM PDT 29.53 5025 0 Normal
04/30/2026 12 AM PDT 29.53 5025 0 Normal
04/30/2026 01 AM PDT 29.51 4994 - Normal
04/30/2026 02 AM PDT 29.51 4994 0 Normal
04/30/2026 03 AM PDT 29.50 4979 - Normal
04/30/2026 04 AM PDT 29.49 4964 - Normal
04/30/2026 05 AM PDT 29.48 4949 - Normal
04/30/2026 06 AM PDT 29.47 4933 - Normal
04/30/2026 07 AM PDT 29.47 4933 0 Normal
04/30/2026 08 AM PDT 29.48 4949 + Normal
04/30/2026 09 AM PDT 29.47 4933 - Normal
04/30/2026 10 AM PDT 29.46 4918 - Normal
04/30/2026 11 AM PDT 29.45 4903 - Normal
04/30/2026 12 PM PDT 29.43 4873 - Normal
04/30/2026 01 PM PDT 29.42 4858 - Normal
04/30/2026 02 PM PDT 29.41 4842 - Normal
04/30/2026 03 PM PDT 29.40 4827 - Normal
04/30/2026 04 PM PDT 29.38 4797 - Normal
04/30/2026 05 PM PDT 29.37 4782 - Normal
04/30/2026 06 PM PDT 29.36 4767 - Normal
04/30/2026 07 PM PDT 29.35 4752 - Normal
04/30/2026 08 PM PDT 29.34 4737 - Normal
04/30/2026 09 PM PDT 29.32 4707 - Normal
04/30/2026 10 PM PDT 29.32 4707 0 Normal
04/30/2026 11 PM PDT 29.32 4707 0 Normal
05/01/2026 12 AM PDT 29.31 4692 - Normal
05/01/2026 01 AM PDT 29.30 4677 - Normal
05/01/2026 02 AM PDT 29.30 4677 0 Normal
05/01/2026 03 AM PDT 29.30 4677 0 Normal
05/01/2026 04 AM PDT 29.29 4662 - Normal
05/01/2026 05 AM PDT 29.30 4677 + Normal
05/01/2026 06 AM PDT 29.29 4662 - Normal
05/01/2026 07 AM PDT 29.30 4677 + Normal
05/01/2026 08 AM PDT 29.31 4692 + Normal
05/01/2026 09 AM PDT 29.32 4707 + Normal
05/01/2026 10 AM PDT 29.32 4707 0 Normal
05/01/2026 11 AM PDT 29.32 4707 0 Normal
05/01/2026 12 PM PDT 29.31 4692 - Normal
05/01/2026 01 PM PDT 29.30 4677 - Normal
05/01/2026 02 PM PDT 29.30 4677 0 Normal
05/01/2026 03 PM PDT 29.29 4662 - Normal
05/01/2026 04 PM PDT 29.27 4632 - Normal
05/01/2026 05 PM PDT 29.27 4632 0 Normal
05/01/2026 06 PM PDT 29.27 4632 0 Normal
05/01/2026 07 PM PDT 29.25 4602 - Normal
05/01/2026 08 PM PDT 29.25 4602 0 Normal
05/01/2026 09 PM PDT 29.25 4602 0 Normal
05/01/2026 10 PM PDT 29.25 4602 0 Normal
05/01/2026 11 PM PDT 29.25 4602 0 Normal
05/02/2026 12 AM PDT 29.25 4602 0 Normal
05/02/2026 01 AM PDT 29.25 4602 0 Normal
05/02/2026 02 AM PDT 29.25 4602 0 Normal
05/02/2026 03 AM PDT 29.24 4587 - Normal
05/02/2026 04 AM PDT 29.24 4587 0 Normal
05/02/2026 05 AM PDT 29.23 4572 - Normal
05/02/2026 06 AM PDT 29.22 4557 - Normal
05/02/2026 07 AM PDT 29.21 4542 - Normal
05/02/2026 08 AM PDT 29.20 4527 - Normal
05/02/2026 09 AM PDT 29.19 4512 - Normal
05/02/2026 10 AM PDT 29.17 4482 - Normal
05/02/2026 11 AM PDT 29.16 4468 - Normal
05/02/2026 12 PM PDT 29.14 4438 - Normal
05/02/2026 01 PM PDT 29.11 4393 - Normal
05/02/2026 02 PM PDT 29.09 4364 - Normal
05/02/2026 03 PM PDT 29.07 4334 - Normal
05/02/2026 04 PM PDT 29.05 4305 - Normal
05/02/2026 05 PM PDT 29.03 4275 - Normal
05/02/2026 06 PM PDT 29.01 4246 - Normal
05/02/2026 07 PM PDT 29.00 4231 - Normal
05/02/2026 08 PM PDT 28.99 4217 - Normal
05/02/2026 09 PM PDT 28.99 4217 0 Normal
05/02/2026 10 PM PDT 28.99 4217 0 Normal
05/02/2026 11 PM PDT 28.98 4202 - Normal
05/03/2026 12 AM PDT 28.98 4202 0 Normal
05/03/2026 01 AM PDT 28.97 4187 - Normal
05/03/2026 02 AM PDT 28.96 4173 - Normal
05/03/2026 03 AM PDT 28.95 4158 - Normal
05/03/2026 04 AM PDT 28.94 4144 - Normal
05/03/2026 05 AM PDT 28.93 4129 - Normal
05/03/2026 06 AM PDT 28.92 4114 - Normal
05/03/2026 07 AM PDT 28.91 4100 - Normal
05/03/2026 08 AM PDT 28.90 4085 - Normal
#
# FORECAST
#
# Date & Time (Local) Stage (Feet) Flow (cfs) Trend Forecast Status
# ---------------------------------------------------------------------------------
05/03/2026 09 AM PDT 28.89 4071 Normal
05/03/2026 10 AM PDT 28.88 4056 - Normal
05/03/2026 11 AM PDT 28.88 4056 0 Normal
05/03/2026 12 PM PDT 28.87 4042 - Normal
05/03/2026 01 PM PDT 28.86 4027 - Normal
05/03/2026 02 PM PDT 28.85 4013 - Normal
05/03/2026 03 PM PDT 28.85 4013 0 Normal
05/03/2026 04 PM PDT 28.84 3998 - Normal
05/03/2026 05 PM PDT 28.84 3998 0 Normal
05/03/2026 06 PM PDT 28.83 3984 - Normal
05/03/2026 07 PM PDT 28.83 3984 0 Normal
05/03/2026 08 PM PDT 28.82 3969 - Normal
05/03/2026 09 PM PDT 28.82 3969 0 Normal
05/03/2026 10 PM PDT 28.81 3955 - Normal
05/03/2026 11 PM PDT 28.80 3940 - Normal
05/04/2026 12 AM PDT 28.79 3926 - Normal
05/04/2026 01 AM PDT 28.78 3912 - Normal
05/04/2026 02 AM PDT 28.77 3897 - Normal
05/04/2026 03 AM PDT 28.76 3883 - Normal
05/04/2026 04 AM PDT 28.75 3868 - Normal
05/04/2026 05 AM PDT 28.74 3854 - Normal
05/04/2026 06 AM PDT 28.73 3840 - Normal
05/04/2026 07 AM PDT 28.72 3825 - Normal
05/04/2026 08 AM PDT 28.72 3825 0 Normal
05/04/2026 09 AM PDT 28.71 3811 - Normal
05/04/2026 10 AM PDT 28.70 3797 - Normal
05/04/2026 11 AM PDT 28.70 3797 0 Normal
05/04/2026 12 PM PDT 28.70 3797 0 Normal
05/04/2026 01 PM PDT 28.69 3782 - Normal
05/04/2026 02 PM PDT 28.69 3782 0 Normal
05/04/2026 03 PM PDT 28.69 3782 0 Normal
05/04/2026 04 PM PDT 28.70 3797 + Normal
05/04/2026 05 PM PDT 28.71 3811 + Normal
05/04/2026 06 PM PDT 28.72 3825 + Normal
05/04/2026 07 PM PDT 28.73 3840 + Normal
05/04/2026 08 PM PDT 28.74 3854 + Normal
05/04/2026 09 PM PDT 28.75 3868 + Normal
05/04/2026 10 PM PDT 28.76 3883 + Normal
05/04/2026 11 PM PDT 28.77 3897 + Normal
05/05/2026 12 AM PDT 28.77 3897 0 Normal
05/05/2026 01 AM PDT 28.77 3897 0 Normal
05/05/2026 02 AM PDT 28.78 3912 + Normal
05/05/2026 03 AM PDT 28.78 3912 0 Normal
05/05/2026 04 AM PDT 28.78 3912 0 Normal
05/05/2026 05 AM PDT 28.78 3912 0 Normal
05/05/2026 06 AM PDT 28.78 3912 0 Normal
05/05/2026 07 AM PDT 28.78 3912 0 Normal
05/05/2026 08 AM PDT 28.78 3912 0 Normal
05/05/2026 09 AM PDT 28.78 3912 0 Normal
05/05/2026 10 AM PDT 28.78 3912 0 Normal
05/05/2026 11 AM PDT 28.78 3912 0 Normal
05/05/2026 12 PM PDT 28.78 3912 0 Normal
05/05/2026 01 PM PDT 28.78 3912 0 Normal
05/05/2026 02 PM PDT 28.78 3912 0 Normal
05/05/2026 03 PM PDT 28.78 3912 0 Normal
05/05/2026 04 PM PDT 28.78 3912 0 Normal
05/05/2026 05 PM PDT 28.78 3912 0 Normal
05/05/2026 06 PM PDT 28.79 3926 + Normal
05/05/2026 07 PM PDT 28.79 3926 0 Normal
05/05/2026 08 PM PDT 28.80 3940 + Normal
05/05/2026 09 PM PDT 28.80 3940 0 Normal
05/05/2026 10 PM PDT 28.80 3940 0 Normal
05/05/2026 11 PM PDT 28.79 3926 - Normal
05/06/2026 12 AM PDT 28.78 3912 - Normal
05/06/2026 01 AM PDT 28.77 3897 - Normal
05/06/2026 02 AM PDT 28.76 3883 - Normal
05/06/2026 03 AM PDT 28.75 3868 - Normal
05/06/2026 04 AM PDT 28.74 3854 - Normal
05/06/2026 05 AM PDT 28.72 3825 - Normal
05/06/2026 06 AM PDT 28.71 3811 - Normal
05/06/2026 07 AM PDT 28.70 3797 - Normal
05/06/2026 08 AM PDT 28.69 3782 - Normal
05/06/2026 09 AM PDT 28.68 3768 - Normal
05/06/2026 10 AM PDT 28.67 3754 - Normal
05/06/2026 11 AM PDT 28.67 3754 0 Normal
05/06/2026 12 PM PDT 28.66 3740 - Normal
05/06/2026 01 PM PDT 28.66 3740 0 Normal
05/06/2026 02 PM PDT 28.65 3725 - Normal
05/06/2026 03 PM PDT 28.65 3725 0 Normal
05/06/2026 04 PM PDT 28.65 3725 0 Normal
05/06/2026 05 PM PDT 28.65 3725 0 Normal
05/06/2026 06 PM PDT 28.64 3711 - Normal
05/06/2026 07 PM PDT 28.64 3711 0 Normal
05/06/2026 08 PM PDT 28.64 3711 0 Normal
05/06/2026 09 PM PDT 28.64 3711 0 Normal
05/06/2026 10 PM PDT 28.64 3711 0 Normal
05/06/2026 11 PM PDT 28.64 3711 0 Normal
05/07/2026 12 AM PDT 28.63 3697 - Normal
05/07/2026 01 AM PDT 28.63 3697 0 Normal
05/07/2026 02 AM PDT 28.63 3697 0 Normal
05/07/2026 03 AM PDT 28.63 3697 0 Normal
05/07/2026 04 AM PDT 28.63 3697 0 Normal
05/07/2026 05 AM PDT 28.63 3697 0 Normal
05/07/2026 06 AM PDT 28.62 3683 - Normal
05/07/2026 07 AM PDT 28.62 3683 0 Normal
05/07/2026 08 AM PDT 28.62 3683 0 Normal
05/07/2026 09 AM PDT 28.62 3683 0 Normal
05/07/2026 10 AM PDT 28.62 3683 0 Normal
05/07/2026 11 AM PDT 28.62 3683 0 Normal
05/07/2026 12 PM PDT 28.62 3683 0 Normal
05/07/2026 01 PM PDT 28.62 3683 0 Normal
05/07/2026 02 PM PDT 28.62 3683 0 Normal
05/07/2026 03 PM PDT 28.62 3683 0 Normal
05/07/2026 04 PM PDT 28.63 3697 + Normal
05/07/2026 05 PM PDT 28.64 3711 + Normal
05/07/2026 06 PM PDT 28.65 3725 + Normal
05/07/2026 07 PM PDT 28.66 3740 + Normal
05/07/2026 08 PM PDT 28.67 3754 + Normal
05/07/2026 09 PM PDT 28.68 3768 + Normal
05/07/2026 10 PM PDT 28.69 3782 + Normal
05/07/2026 11 PM PDT 28.70 3797 + Normal
05/08/2026 12 AM PDT 28.70 3797 0 Normal
05/08/2026 01 AM PDT 28.71 3811 + Normal
05/08/2026 02 AM PDT 28.71 3811 0 Normal
05/08/2026 03 AM PDT 28.72 3825 + Normal
05/08/2026 04 AM PDT 28.72 3825 0 Normal
05/08/2026 05 AM PDT 28.72 3825 0 Normal
#
# NOTE 1: Stages are rounded to the nearest hundredth (.01) of a foot.
# NOTE 2: Flows are rounded to the nearest (1) cfs.
# NOTE 3: Trends are determined using hourly change in unrounded stage and flow.
# NOTE 4: Maximum Values are determined using unrounded stage and flow.
|